createdAt,value
2019-05-15T00:01:11.963Z,6.20
2019-05-15T00:03:40.935Z,6.30
2019-05-15T00:06:09.883Z,6.30
2019-05-15T00:08:38.888Z,6.20
2019-05-15T00:11:08.440Z,6.20
2019-05-15T00:13:38.920Z,6.20
2019-05-15T00:16:08.565Z,6.20
2019-05-15T00:18:38.967Z,6.10
2019-05-15T00:21:09.167Z,6.10
2019-05-15T00:23:38.937Z,6.10
2019-05-15T00:26:09.273Z,6.00
2019-05-15T00:28:39.029Z,6.10
2019-05-15T00:31:09.044Z,6.10
2019-05-15T00:33:39.391Z,6.20
2019-05-15T00:36:08.914Z,6.10
2019-05-15T00:38:39.052Z,6.00
2019-05-15T00:41:09.445Z,5.90
2019-05-15T00:43:38.983Z,5.90
2019-05-15T00:46:09.223Z,5.70
2019-05-15T00:48:39.838Z,5.70
2019-05-15T00:51:08.924Z,5.70
2019-05-15T00:53:38.940Z,5.70
2019-05-15T00:56:08.879Z,5.60
2019-05-15T00:58:40.076Z,5.50
2019-05-15T01:01:08.519Z,5.50
2019-05-15T01:03:38.807Z,5.30
2019-05-15T01:06:08.342Z,5.30
2019-05-15T01:08:39.307Z,5.30
2019-05-15T01:11:09.084Z,5.20
2019-05-15T01:13:38.801Z,5.20
2019-05-15T01:16:09.089Z,5.00
2019-05-15T01:18:38.661Z,4.80
2019-05-15T01:21:08.438Z,4.70
2019-05-15T01:23:39.046Z,4.70
2019-05-15T01:26:08.528Z,4.80
2019-05-15T01:28:38.348Z,4.90
2019-05-15T01:31:08.484Z,5.00
2019-05-15T01:33:39.086Z,5.00
2019-05-15T01:36:08.622Z,5.00
2019-05-15T01:38:38.937Z,5.00
2019-05-15T01:41:09.754Z,5.00
2019-05-15T01:43:38.572Z,5.00
2019-05-15T01:46:08.408Z,4.90
2019-05-15T01:48:38.745Z,4.80
2019-05-15T01:51:09.336Z,4.70
2019-05-15T01:53:38.710Z,4.70
2019-05-15T01:56:08.357Z,4.70
2019-05-15T01:58:38.282Z,4.80
2019-05-15T02:01:08.206Z,4.70
2019-05-15T02:03:38.588Z,4.70
2019-05-15T02:06:08.388Z,4.80
2019-05-15T02:08:39.188Z,4.80
2019-05-15T02:11:09.160Z,4.90
2019-05-15T02:13:39.071Z,4.80
2019-05-15T02:16:08.495Z,4.80
2019-05-15T02:18:39.147Z,4.90
2019-05-15T02:21:10.354Z,4.80
2019-05-15T02:23:38.935Z,4.90
2019-05-15T02:26:08.118Z,5.00
2019-05-15T02:28:38.433Z,5.00
2019-05-15T02:31:10.535Z,5.00
2019-05-15T02:33:40.080Z,4.90
2019-05-15T02:36:09.850Z,5.00
2019-05-15T02:38:41.012Z,5.10
2019-05-15T02:41:10.394Z,5.10
2019-05-15T02:43:39.487Z,5.10
2019-05-15T02:46:10.005Z,5.20
2019-05-15T02:48:40.940Z,5.20
2019-05-15T02:51:10.015Z,5.20
2019-05-15T02:53:39.725Z,5.20
2019-05-15T02:56:09.433Z,5.20
2019-05-15T02:58:39.784Z,5.20
2019-05-15T03:01:09.499Z,5.20
2019-05-15T03:03:39.274Z,5.20
2019-05-15T03:06:10.040Z,5.30
2019-05-15T03:08:39.939Z,5.20
2019-05-15T03:11:09.989Z,5.20
2019-05-15T03:13:39.555Z,5.20
2019-05-15T03:16:10.085Z,5.20
2019-05-15T03:18:39.885Z,5.20
2019-05-15T03:21:09.688Z,5.20
2019-05-15T03:23:40.503Z,5.20
2019-05-15T03:26:09.610Z,5.20
2019-05-15T03:28:39.461Z,5.20
2019-05-15T03:31:35.806Z,5.20
2019-05-15T03:33:45.531Z,5.30
2019-05-15T03:36:13.187Z,5.30
2019-05-15T03:38:40.800Z,5.30
2019-05-15T03:41:10.349Z,5.30
2019-05-15T03:43:39.891Z,5.20
2019-05-15T03:46:09.318Z,5.30
2019-05-15T03:48:40.108Z,5.30
2019-05-15T03:51:09.415Z,5.40
2019-05-15T03:53:40.142Z,5.40
2019-05-15T03:56:09.895Z,5.30
2019-05-15T03:58:39.994Z,5.30
2019-05-15T04:01:27.822Z,5.40
2019-05-15T04:03:40.155Z,5.40
2019-05-15T04:06:10.047Z,5.40
2019-05-15T04:08:39.620Z,5.50
2019-05-15T04:11:09.334Z,5.50
2019-05-15T04:13:39.611Z,5.40
2019-05-15T04:16:10.383Z,5.40
2019-05-15T04:18:39.776Z,5.40
2019-05-15T04:21:09.409Z,5.50
2019-05-15T04:23:39.320Z,5.60
2019-05-15T04:26:09.795Z,5.70
2019-05-15T04:28:41.805Z,5.80
2019-05-15T04:31:11.097Z,5.80
2019-05-15T04:33:40.336Z,5.80
2019-05-15T04:36:09.988Z,5.80
2019-05-15T04:38:39.596Z,5.90
2019-05-15T04:41:09.687Z,6.00
2019-05-15T04:43:44.567Z,6.00
2019-05-15T04:46:10.189Z,6.10
2019-05-15T04:48:39.998Z,6.20
2019-05-15T04:51:09.859Z,6.20
2019-05-15T04:53:39.730Z,6.40
2019-05-15T04:56:09.526Z,6.40
2019-05-15T04:58:39.496Z,6.50
2019-05-15T05:01:09.502Z,6.50
2019-05-15T05:03:39.549Z,6.50
2019-05-15T05:06:09.787Z,6.60
2019-05-15T05:08:40.292Z,6.70
2019-05-15T05:11:09.912Z,6.90
2019-05-15T05:13:39.586Z,7.00
2019-05-15T05:16:09.455Z,7.00
2019-05-15T05:18:41.152Z,7.10
2019-05-15T05:21:09.263Z,7.10
2019-05-15T05:23:38.325Z,7.10
2019-05-15T05:26:10.854Z,7.00
2019-05-15T05:28:40.976Z,7.10
2019-05-15T05:31:09.843Z,7.20
2019-05-15T05:33:39.164Z,7.30
2019-05-15T05:36:08.153Z,7.30
2019-05-15T05:38:38.771Z,7.30
2019-05-15T05:41:08.231Z,7.40
2019-05-15T05:43:38.372Z,7.40
2019-05-15T05:46:09.287Z,7.60
2019-05-15T05:48:38.472Z,7.50
2019-05-15T05:51:09.233Z,7.60
2019-05-15T05:53:38.568Z,7.70
2019-05-15T05:56:08.905Z,7.70
2019-05-15T05:58:40.178Z,7.70
2019-05-15T06:01:09.619Z,7.80
2019-05-15T06:03:38.947Z,7.90
2019-05-15T06:06:09.777Z,7.90
2019-05-15T06:08:39.185Z,8.00
2019-05-15T06:11:09.772Z,8.00
2019-05-15T06:13:38.612Z,8.10
2019-05-15T06:16:08.479Z,8.00
2019-05-15T06:18:38.796Z,8.10
2019-05-15T06:21:09.156Z,8.20
2019-05-15T06:23:44.677Z,8.20
2019-05-15T06:26:09.502Z,8.30
2019-05-15T06:28:39.561Z,8.40
2019-05-15T06:31:08.962Z,8.40
2019-05-15T06:33:38.650Z,8.50
2019-05-15T06:36:08.948Z,8.50
2019-05-15T06:38:39.377Z,8.70
2019-05-15T06:41:08.847Z,8.80
2019-05-15T06:43:38.949Z,9.10
2019-05-15T06:46:09.128Z,9.30
2019-05-15T06:48:38.258Z,9.50
2019-05-15T06:51:08.846Z,9.70
2019-05-15T06:53:38.496Z,9.90
2019-05-15T06:56:08.096Z,10.00
2019-05-15T06:58:38.489Z,10.00
2019-05-15T07:01:08.753Z,10.00
2019-05-15T07:03:39.382Z,10.10
2019-05-15T07:06:09.290Z,10.10
2019-05-15T07:08:38.665Z,10.20
2019-05-15T07:11:08.903Z,10.30
2019-05-15T07:13:38.391Z,10.40
2019-05-15T07:16:08.074Z,10.70
2019-05-15T07:18:39.057Z,10.90
2019-05-15T07:21:10.201Z,11.00
2019-05-15T07:23:38.938Z,11.20
2019-05-15T07:26:09.427Z,11.50
2019-05-15T07:28:38.673Z,12.00
2019-05-15T07:31:11.331Z,12.40
2019-05-15T07:33:43.279Z,12.70
2019-05-15T07:36:08.996Z,12.60
2019-05-15T07:38:39.176Z,12.70
2019-05-15T07:41:10.133Z,12.50
2019-05-15T07:43:39.399Z,12.50
2019-05-15T07:46:08.713Z,12.20
2019-05-15T07:48:38.373Z,12.10
2019-05-15T07:51:11.466Z,12.20
2019-05-15T07:53:38.587Z,12.40
2019-05-15T07:56:11.861Z,12.60
2019-05-15T07:58:38.591Z,12.80
2019-05-15T08:01:09.909Z,12.90
2019-05-15T08:03:53.888Z,13.00
2019-05-15T08:06:09.205Z,13.10
2019-05-15T08:08:39.395Z,13.40
2019-05-15T08:11:20.256Z,13.90
2019-05-15T08:13:39.771Z,14.50
2019-05-15T08:16:08.754Z,15.00
2019-05-15T08:18:39.389Z,15.50
2019-05-15T08:21:08.992Z,15.70
2019-05-15T08:23:39.138Z,15.50
2019-05-15T08:26:08.924Z,15.10
2019-05-15T08:28:38.257Z,14.90
2019-05-15T08:31:10.217Z,15.00
2019-05-15T08:33:38.866Z,14.90
2019-05-15T08:36:08.587Z,15.10
2019-05-15T08:38:38.353Z,14.90
2019-05-15T08:41:11.181Z,14.80
2019-05-15T08:43:38.362Z,15.30
2019-05-15T08:46:08.298Z,15.50
2019-05-15T08:48:38.430Z,15.70
2019-05-15T08:51:08.666Z,16.10
2019-05-15T08:53:38.145Z,16.00
2019-05-15T08:56:08.536Z,15.50
2019-05-15T08:58:38.277Z,15.80
2019-05-15T09:01:09.781Z,16.00
2019-05-15T09:03:38.206Z,16.00
2019-05-15T09:06:09.061Z,16.40
2019-05-15T09:08:39.074Z,16.40
2019-05-15T09:11:09.168Z,16.20
2019-05-15T09:13:43.389Z,15.90
2019-05-15T09:16:09.321Z,15.40
2019-05-15T09:18:39.167Z,14.90
2019-05-15T09:21:09.001Z,14.70
2019-05-15T09:23:38.901Z,14.80
2019-05-15T09:26:09.207Z,14.60
2019-05-15T09:28:39.065Z,14.70
2019-05-15T09:31:08.585Z,14.80
2019-05-15T09:33:38.701Z,15.10
2019-05-15T09:36:08.989Z,15.30
2019-05-15T09:38:39.144Z,15.50
2019-05-15T09:41:09.042Z,15.50
2019-05-15T09:43:38.912Z,15.20
2019-05-15T09:46:10.503Z,15.30
2019-05-15T09:48:40.115Z,15.50
2019-05-15T09:51:09.431Z,15.40
2019-05-15T09:53:39.368Z,15.40
2019-05-15T09:56:08.617Z,15.50
2019-05-15T09:58:38.146Z,15.50
2019-05-15T10:01:08.426Z,15.30
2019-05-15T10:03:39.484Z,15.60
2019-05-15T10:06:08.522Z,16.50
2019-05-15T10:08:39.717Z,17.50
2019-05-15T10:11:09.065Z,18.10
2019-05-15T10:13:38.546Z,18.60
2019-05-15T10:16:08.280Z,18.90
2019-05-15T10:18:39.002Z,19.40
2019-05-15T10:21:08.973Z,19.10
2019-05-15T10:23:40.413Z,19.20
2019-05-15T10:26:14.008Z,19.10
2019-05-15T10:28:39.485Z,19.20
2019-05-15T10:31:09.422Z,19.30
2019-05-15T10:33:39.340Z,19.50
2019-05-15T10:36:08.639Z,19.90
2019-05-15T10:38:39.260Z,19.90
2019-05-15T10:41:13.876Z,19.80
2019-05-15T10:43:45.913Z,20.60
2019-05-15T10:46:13.331Z,21.70
2019-05-15T10:48:40.308Z,21.20
2019-05-15T10:51:10.349Z,21.70
2019-05-15T10:53:39.473Z,21.10
2019-05-15T10:56:08.991Z,20.80
2019-05-15T10:58:39.288Z,20.40
2019-05-15T11:01:11.288Z,19.60
2019-05-15T11:03:39.968Z,19.20
2019-05-15T11:06:09.308Z,19.10
2019-05-15T11:08:40.587Z,19.60
2019-05-15T11:11:09.507Z,20.50
2019-05-15T11:13:38.430Z,21.20
2019-05-15T11:16:07.440Z,21.70
2019-05-15T11:18:39.111Z,21.10
2019-05-15T11:21:08.254Z,21.60
2019-05-15T11:23:39.391Z,21.80
2019-05-15T11:26:08.819Z,21.70
2019-05-15T11:28:39.065Z,22.40
2019-05-15T11:31:10.318Z,22.80
2019-05-15T11:33:39.248Z,23.10
2019-05-15T11:36:08.214Z,23.40
2019-05-15T11:38:38.191Z,23.50
2019-05-15T11:41:08.737Z,22.90
2019-05-15T11:43:38.777Z,21.80
2019-05-15T11:46:10.012Z,21.00
2019-05-15T11:48:39.304Z,20.10
2019-05-15T11:51:09.439Z,19.70
2019-05-15T11:53:39.790Z,19.40
2019-05-15T11:56:14.384Z,19.00
2019-05-15T11:58:43.402Z,18.80
2019-05-15T12:01:12.256Z,19.30
2019-05-15T12:03:41.178Z,19.50
2019-05-15T12:06:17.992Z,19.70
2019-05-15T12:08:40.730Z,19.50
2019-05-15T12:11:12.110Z,19.40
2019-05-15T12:13:40.067Z,19.00
2019-05-15T12:16:08.992Z,18.30
2019-05-15T12:18:38.986Z,18.10
2019-05-15T12:21:08.351Z,18.10
2019-05-15T12:23:38.713Z,18.20
2019-05-15T12:26:09.030Z,18.50
2019-05-15T12:28:40.639Z,18.90
2019-05-15T12:31:09.134Z,19.40
2019-05-15T12:33:38.606Z,19.60
2019-05-15T12:36:10.581Z,19.10
2019-05-15T12:39:25.993Z,18.70
2019-05-15T13:01:18.369Z,16.60
2019-05-15T13:03:45.866Z,16.40
2019-05-15T13:06:14.854Z,16.20
2019-05-15T13:08:43.675Z,16.40
2019-05-15T13:11:15.155Z,16.30
2019-05-15T13:13:43.246Z,16.50
2019-05-15T13:16:12.022Z,16.50
2019-05-15T13:18:40.891Z,16.50
2019-05-15T13:21:09.748Z,16.30
2019-05-15T13:23:38.834Z,16.30
2019-05-15T13:26:21.543Z,16.60
2019-05-15T13:28:38.523Z,16.50
2019-05-15T13:31:09.132Z,16.50
2019-05-15T13:33:38.770Z,16.30
2019-05-15T13:36:08.959Z,16.30
2019-05-15T13:38:38.287Z,16.10
2019-05-15T13:41:09.444Z,16.10
2019-05-15T13:43:38.558Z,16.00
2019-05-15T13:46:08.791Z,16.30
2019-05-15T13:48:38.578Z,16.30
2019-05-15T13:51:08.903Z,16.50
2019-05-15T13:53:38.550Z,16.60
2019-05-15T13:56:07.790Z,16.60
2019-05-15T13:58:38.737Z,16.40
2019-05-15T14:01:09.408Z,16.50
2019-05-15T14:03:39.000Z,16.50
2019-05-15T14:06:09.398Z,16.30
2019-05-15T14:08:39.274Z,16.30
2019-05-15T14:11:08.742Z,16.00
2019-05-15T14:13:39.188Z,15.90
2019-05-15T14:16:09.589Z,15.90
2019-05-15T14:18:39.131Z,15.90
2019-05-15T14:21:09.113Z,16.00
2019-05-15T14:23:38.523Z,15.80
2019-05-15T14:26:17.990Z,15.80
2019-05-15T14:28:38.890Z,15.70
2019-05-15T14:31:09.803Z,15.80
2019-05-15T14:33:38.778Z,15.70
2019-05-15T14:36:08.444Z,15.50
2019-05-15T14:38:37.858Z,15.20
2019-05-15T14:41:08.820Z,14.90
2019-05-15T14:43:38.306Z,14.50
2019-05-15T14:46:08.131Z,14.30
2019-05-15T14:48:38.608Z,14.30
2019-05-15T14:51:08.694Z,14.20
2019-05-15T14:53:38.531Z,14.10
2019-05-15T14:56:08.446Z,14.00
2019-05-15T14:58:38.705Z,13.90
2019-05-15T15:01:12.185Z,13.90
2019-05-15T15:03:38.719Z,13.90
2019-05-15T15:06:08.630Z,13.60
2019-05-15T15:08:37.744Z,13.40
2019-05-15T15:11:08.771Z,13.40
2019-05-15T15:13:38.176Z,13.30
2019-05-15T15:16:08.380Z,13.40
2019-05-15T15:18:38.602Z,13.20
2019-05-15T15:21:08.594Z,13.20
2019-05-15T15:23:38.874Z,13.30
2019-05-15T15:26:08.366Z,13.30
2019-05-15T15:28:37.128Z,13.30
2019-05-15T15:31:06.036Z,13.40
2019-05-15T15:33:34.852Z,13.30
2019-05-15T15:36:03.727Z,13.30
2019-05-15T15:38:40.612Z,13.30
2019-05-15T15:41:03.175Z,13.20
2019-05-15T15:43:31.993Z,13.10
2019-05-15T15:46:00.855Z,13.00
2019-05-15T15:48:29.728Z,12.90
2019-05-15T15:50:58.960Z,12.80
2019-05-15T15:53:28.722Z,12.70
2019-05-15T15:55:57.863Z,12.60
2019-05-15T15:58:28.946Z,12.60
2019-05-15T16:00:57.501Z,12.40
2019-05-15T16:03:28.540Z,12.20
2019-05-15T16:05:56.999Z,12.30
2019-05-15T16:08:28.360Z,12.30
2019-05-15T16:10:58.804Z,12.20
2019-05-15T16:13:29.246Z,12.20
2019-05-15T16:15:57.976Z,12.10
2019-05-15T16:18:28.937Z,12.20
2019-05-15T16:20:57.956Z,12.20
2019-05-15T16:23:28.250Z,12.10
2019-05-15T16:26:00.759Z,12.10
2019-05-15T16:28:28.978Z,12.00
2019-05-15T16:30:58.578Z,12.00
2019-05-15T16:33:28.346Z,11.80
2019-05-15T16:35:58.090Z,11.70
2019-05-15T16:38:28.424Z,11.70
2019-05-15T16:40:58.433Z,11.70
2019-05-15T16:43:28.586Z,11.50
2019-05-15T16:45:58.783Z,11.40
2019-05-15T16:48:29.289Z,11.30
2019-05-15T16:50:59.041Z,11.20
2019-05-15T16:53:28.973Z,11.30
2019-05-15T16:55:58.780Z,11.30
2019-05-15T16:58:29.682Z,11.40
2019-05-15T17:00:58.725Z,11.40
2019-05-15T17:03:28.881Z,11.30
2019-05-15T17:05:58.730Z,11.30
2019-05-15T17:08:28.552Z,11.20
2019-05-15T17:10:58.765Z,11.20
2019-05-15T17:13:28.769Z,11.20
2019-05-15T17:15:58.556Z,11.20
2019-05-15T17:18:27.597Z,11.20
2019-05-15T17:20:58.835Z,11.30
2019-05-15T17:23:27.748Z,11.30
2019-05-15T17:25:58.105Z,11.30
2019-05-15T17:28:29.021Z,11.10
2019-05-15T17:30:58.409Z,11.00
2019-05-15T17:33:28.840Z,11.00
2019-05-15T17:35:58.149Z,10.90
2019-05-15T17:38:28.686Z,10.90
2019-05-15T17:40:57.968Z,10.90
2019-05-15T17:43:28.742Z,10.90
2019-05-15T17:45:58.243Z,10.90
2019-05-15T17:48:28.923Z,10.80
2019-05-15T17:50:59.029Z,10.70
2019-05-15T17:53:28.821Z,10.70
2019-05-15T17:55:58.608Z,10.60
2019-05-15T17:58:28.832Z,10.50
2019-05-15T18:00:59.417Z,10.40
2019-05-15T18:03:28.924Z,10.40
2019-05-15T18:05:59.179Z,10.30
2019-05-15T18:08:28.919Z,10.20
2019-05-15T18:10:58.734Z,10.00
2019-05-15T18:13:28.699Z,10.00
2019-05-15T18:16:03.241Z,9.90
2019-05-15T18:18:28.400Z,9.90
2019-05-15T18:20:58.176Z,9.80
2019-05-15T18:23:27.325Z,9.80
2019-05-15T18:25:58.431Z,9.80
2019-05-15T18:28:27.070Z,9.80
2019-05-15T18:30:55.870Z,9.70
2019-05-15T18:33:24.719Z,9.70
2019-05-15T18:35:53.502Z,9.60
2019-05-15T18:38:22.299Z,9.60
2019-05-15T18:40:51.069Z,9.60
2019-05-15T18:43:20.057Z,9.60
2019-05-15T18:45:48.992Z,9.50
2019-05-15T18:48:18.412Z,9.50
2019-05-15T18:50:48.189Z,9.40
2019-05-15T18:53:17.071Z,9.40
2019-05-15T18:55:45.891Z,9.40
2019-05-15T18:58:14.755Z,9.40
2019-05-15T19:00:43.739Z,9.40
2019-05-15T19:03:19.467Z,9.30
2019-05-15T19:05:43.452Z,9.30
2019-05-15T19:08:12.261Z,9.30
2019-05-15T19:10:41.234Z,9.30
2019-05-15T19:13:10.066Z,9.30
2019-05-15T19:15:39.154Z,9.30
2019-05-15T19:18:08.196Z,9.30
2019-05-15T19:20:38.802Z,9.20
2019-05-15T19:23:08.216Z,9.10
2019-05-15T19:25:37.339Z,9.10
2019-05-15T19:28:08.376Z,9.10
2019-05-15T19:30:38.823Z,9.20
2019-05-15T19:33:07.941Z,9.10
2019-05-15T19:35:38.663Z,9.10
2019-05-15T19:38:08.008Z,9.10
2019-05-15T19:40:38.997Z,9.10
2019-05-15T19:43:09.232Z,9.00
2019-05-15T19:45:38.771Z,9.00
2019-05-15T19:48:08.971Z,9.00
2019-05-15T19:50:38.166Z,9.00
2019-05-15T19:53:08.219Z,9.00
2019-05-15T19:55:37.204Z,9.00
2019-05-15T19:58:05.984Z,8.90
2019-05-15T20:00:34.850Z,8.90
2019-05-15T20:03:03.618Z,9.00
2019-05-15T20:05:32.414Z,9.00
2019-05-15T20:08:01.182Z,8.90
2019-05-15T20:10:30.127Z,9.00
2019-05-15T20:12:59.613Z,9.00
2019-05-15T20:15:28.879Z,8.90
2019-05-15T20:17:58.138Z,8.90
2019-05-15T20:20:28.416Z,8.90
2019-05-15T20:22:59.942Z,8.80
2019-05-15T20:25:28.080Z,8.90
2019-05-15T20:27:56.965Z,8.90
2019-05-15T20:30:28.419Z,8.80
2019-05-15T20:32:58.375Z,8.80
2019-05-15T20:35:28.198Z,8.80
2019-05-15T20:37:58.283Z,8.80
2019-05-15T20:40:27.466Z,8.80
2019-05-15T20:42:58.947Z,8.70
2019-05-15T20:45:29.050Z,8.70
2019-05-15T20:47:58.530Z,8.80
2019-05-15T20:50:28.245Z,8.70
2019-05-15T20:52:58.853Z,8.60
2019-05-15T20:55:27.961Z,8.60
2019-05-15T20:57:58.571Z,8.60
2019-05-15T21:00:27.720Z,8.60
2019-05-15T21:02:57.828Z,8.60
2019-05-15T21:05:27.765Z,8.50
2019-05-15T21:07:56.820Z,8.50
2019-05-15T21:10:25.587Z,8.40
2019-05-15T21:12:54.403Z,8.40
2019-05-15T21:15:23.303Z,8.30
2019-05-15T21:17:59.551Z,8.30
2019-05-15T21:20:22.759Z,8.30
2019-05-15T21:22:51.527Z,8.20
2019-05-15T21:25:20.422Z,8.20
2019-05-15T21:27:49.506Z,8.10
2019-05-15T21:30:18.884Z,8.00
2019-05-15T21:32:49.335Z,7.90
2019-05-15T21:35:18.617Z,7.90
2019-05-15T21:37:48.989Z,7.80
2019-05-15T21:40:18.831Z,7.70
2019-05-15T21:42:50.621Z,7.60
2019-05-15T21:45:19.514Z,7.60
2019-05-15T21:47:48.434Z,7.60
2019-05-15T21:50:19.396Z,7.60
2019-05-15T21:52:49.349Z,7.50
2019-05-15T21:55:18.932Z,7.50
2019-05-15T21:57:47.912Z,7.50
2019-05-15T22:00:24.600Z,7.60
2019-05-15T22:02:53.462Z,7.50
2019-05-15T22:05:22.742Z,7.50
2019-05-15T22:07:51.787Z,7.40
2019-05-15T22:10:20.707Z,7.40
2019-05-15T22:12:49.712Z,7.40
2019-05-15T22:15:19.367Z,7.40
2019-05-15T22:17:49.581Z,7.40
2019-05-15T22:20:19.240Z,7.30
2019-05-15T22:22:50.717Z,7.20
2019-05-15T22:25:19.274Z,7.20
2019-05-15T22:27:48.653Z,7.20
2019-05-15T22:30:18.738Z,7.30
2019-05-15T22:32:49.483Z,7.30
2019-05-15T22:35:18.929Z,7.30
2019-05-15T22:37:49.196Z,7.30
2019-05-15T22:40:18.748Z,7.40
2019-05-15T22:42:48.712Z,7.40
2019-05-15T22:45:18.604Z,7.40
2019-05-15T22:47:48.397Z,7.30
2019-05-15T22:50:19.017Z,7.30
2019-05-15T22:52:49.243Z,7.30
2019-05-15T22:55:18.600Z,7.20
2019-05-15T22:57:48.243Z,7.30
2019-05-15T23:00:18.075Z,7.20
2019-05-15T23:02:48.919Z,7.20
2019-05-15T23:05:28.010Z,7.20
2019-05-15T23:07:48.555Z,7.20
2019-05-15T23:10:17.474Z,7.20
2019-05-15T23:12:48.537Z,7.20
2019-05-15T23:15:18.907Z,7.30
2019-05-15T23:17:48.724Z,7.30
2019-05-15T23:20:17.896Z,7.20
2019-05-15T23:22:46.942Z,7.20
2019-05-15T23:25:18.086Z,7.20
2019-05-15T23:27:48.433Z,7.20
2019-05-15T23:30:18.606Z,7.30
2019-05-15T23:32:48.777Z,7.20
2019-05-15T23:35:17.986Z,7.20
2019-05-15T23:37:48.581Z,7.20
2019-05-15T23:40:17.994Z,7.20
2019-05-15T23:42:49.059Z,7.20
2019-05-15T23:45:18.230Z,7.20
2019-05-15T23:47:48.607Z,7.30
2019-05-15T23:50:17.618Z,7.30
2019-05-15T23:52:48.617Z,7.30
2019-05-15T23:55:18.980Z,7.30
2019-05-15T23:57:48.545Z,7.20
